• Join FlightAware (Why Join?)
  • Login
  • US Flag 
12:58AM EST


 

Airport Tracker/Info


-or-


 

Live Flight TrackerFlight Track Log ✈ EGF4010 ✈ 05-May-2013 ✈ KFAR - KORD

Flight Track Log - Related Links

Times and Time Zones

All times are in EDT time to prevent confusion due to time zone crossing. See the EGF4010 flight status page for this flight to view local times or setup timezone preferences in your user account.

Time Position Orientation Groundspeed Altitude Reporting Facility
EDT Latitude Longitude Course Direction KTS MPH feet Rate Location/Type
06:40PM 46.9314 -96.7753 121° Southeast 185 213 2,900  Level Minneapolis Center
06:41PM 46.8800 -96.7089 139° Southeast 235 270 5,700 2,820 Climbing Minneapolis Center
06:42PM 46.7189 -96.7722 120° Southeast  Level FlightAware Approximate
06:42PM 46.8292 -96.6347 135° Southeast 260 299 8,800  Level Minneapolis Center
06:43PM 46.6610 -96.6640 123° Southeast  Level FlightAware Approximate
06:43PM 46.7722 -96.5478 134° Southeast 283 326 11,000  Level Minneapolis Center
06:44PM 46.6089 -96.5479 121° Southeast  Level FlightAware Approximate
06:44PM 46.7083 -96.4494 133° Southeast 319 367 13,200  Level Minneapolis Center
06:45PM 46.5595 -96.4293 121° Southeast  Level FlightAware Approximate
06:45PM 46.6411 -96.3486 134° Southeast 332 382 15,400  Level Minneapolis Center
06:46PM 46.5714 -96.2439 134° Southeast 346 398 17,500 1,740 Climbing Minneapolis Center
06:47PM 46.5136 -96.1500 132° Southeast 349 402 19,100 1,740 Climbing Minneapolis Center
06:48PM 46.4597 -96.0308 123° Southeast 354 407 21,100 2,220 Climbing Minneapolis Center
06:49PM 46.3914 -95.8864 124° Southeast 361 415 23,800 2,160 Climbing Minneapolis Center
06:50PM 46.3406 -95.7794 125° Southeast 361 415 25,600 1,980 Climbing Minneapolis Center
06:51PM 46.2725 -95.6364 125° Southeast 360 414 28,000 1,860 Climbing Minneapolis Center
06:53PM 46.2147 -95.5161 125° Southeast 363 418 29,500 1,440 Climbing Minneapolis Center
06:54PM 46.1561 -95.3933 125° Southeast 371 427 31,000 1,440 Climbing Minneapolis Center
06:55PM 46.0939 -95.2653 125° Southeast 385 443 32,500 1,200 Climbing Minneapolis Center
06:56PM 46.0294 -95.1344 125° Southeast 397 457 33,500 720 Climbing Minneapolis Center
06:57PM 45.9586 -94.9897 125° Southeast 416 479 34,100 1,140 Climbing Minneapolis Center
06:58PM 45.8925 -94.8536 125° Southeast 419 482 35,900 1,320 Climbing Minneapolis Center
06:59PM 45.8306 -94.7278 125° Southeast 395 455 36,900 480 Climbing Minneapolis Center
07:00PM 45.7539 -94.5739 125° Southeast 395 455 37,000  Climbing Minneapolis Center
07:01PM 45.6869 -94.4403 126° Southeast 407 468 37,000  Level Minneapolis Center
07:02PM 45.6203 -94.3056 125° Southeast 415 478 37,000  Level Minneapolis Center
07:03PM 45.5542 -94.1719 125° Southeast 414 476 37,000  Level Minneapolis Center
07:04PM 45.4872 -94.0394 126° Southeast 413 475 37,000  Level Minneapolis Center
07:06PM 45.3397 -93.7492 126° Southeast 413 475 37,000  Level Minneapolis Center
07:08PM 45.2036 -93.4869 126° Southeast 415 478 37,000  Level Minneapolis Center
07:09PM 45.1372 -93.3544 125° Southeast 413 475 37,000  Level Minneapolis Center
07:10PM 45.0772 -93.2128 121° Southeast 415 478 37,000  Level Minneapolis Center
07:11PM 45.0108 -93.0764 125° Southeast 419 482 37,000  Level Minneapolis Center
07:12PM 44.9467 -92.9394 123° Southeast 415 478 37,000  Level Minneapolis Center
07:13PM 44.8692 -92.7733 123° Southeast 419 482 37,000  Level Minneapolis Center
07:14PM 44.8033 -92.6356 124° Southeast 422 486 37,000  Level Minneapolis Center
07:15PM 44.7378 -92.4989 124° Southeast 421 484 37,000  Level Minneapolis Center
07:16PM 44.6731 -92.3619 124° Southeast 420 483 37,000  Level Minneapolis Center
07:17PM 44.6081 -92.2281 124° Southeast 418 481 37,000  Level Minneapolis Center
07:18PM 44.5428 -92.0936 124° Southeast 418 481 37,000  Level Minneapolis Center
07:19PM 44.4764 -91.9561 124° Southeast 421 484 37,000  Level Minneapolis Center
07:20PM 44.3825 -91.8108 132° Southeast 421 484 37,000  Level Minneapolis Center
07:21PM 44.2978 -91.6972 136° Southeast 421 484 37,000  Level Minneapolis Center
07:22PM 44.2161 -91.5819 135° Southeast 421 484 37,000  Level Minneapolis Center
07:23PM 44.1356 -91.4672 134° Southeast 418 481 37,000  Level Minneapolis Center
07:25PM 44.0722 -91.3339 123° Southeast 420 483 37,000 -360 Level Minneapolis Center
07:26PM 44.0133 -91.1994 121° Southeast 419 482 36,300 -1,500 Descending Minneapolis Center
07:27PM 43.9392 -91.0353 122° Southeast 420 483 33,900 -2,040 Descending Minneapolis Center
07:28PM 43.8775 -90.9000 122° Southeast 420 483 32,100 -1,440 Descending Minneapolis Center
07:29PM 43.8150 -90.7636 122° Southeast 421 484 31,000 -1,200 Descending Minneapolis Center
07:30PM 43.7508 -90.6250 123° Southeast 428 493 29,700 -1,440 Descending Minneapolis Center
07:31PM 43.6864 -90.4858 123° Southeast 431 496 28,100 -1,500 Descending Minneapolis Center
07:32PM 43.6225 -90.3453 122° Southeast 434 499 26,600 -1,800 Descending Minneapolis Center
07:33PM 43.5444 -90.1817 123° Southeast 438 504 24,500 -2,040 Descending Minneapolis Center
07:34PM 43.4814 -90.0469 123° Southeast 426 490 22,500 -1,860 Descending Minneapolis Center
07:35PM 43.4200 -89.9172 123° Southeast 409 471 20,800 -1,740 Descending Minneapolis Center
07:35PM 43.3789 -89.8322 124° Southeast 405 466 19,800 -1,620 Descending Chicago Center
07:36PM 43.3222 -89.7122 123° Southeast 385 443 18,300 -1,380 Descending Chicago Center
07:37PM 43.2644 -89.5931 124° Southeast 377 434 17,000 -1,200 Descending Chicago Center
07:38PM 43.2092 -89.4736 122° Southeast 372 428 15,800 -1,140 Descending Chicago Center
07:40PM 43.1514 -89.3592 125° Southeast 368 423 14,700 -1,080 Descending Chicago Center
07:41PM 43.0419 -89.2978 158° South 374 430 13,600 -840 Descending Chicago Center
07:42PM 42.9444 -89.2603 164° South 367 422 13,000 -300 Descending Chicago Center
07:43PM 42.8558 -89.2075 156° South 353 406 13,000  Level Chicago Center
07:44PM 42.7931 -89.1142 132° Southeast 336 387 13,000  Level Chicago Center
07:45PM 42.7314 -89.0228 133° Southeast 331 381 13,000  Level Chicago Center
07:46PM 42.6578 -88.9144 133° Southeast 333 383 13,000 -480 Level Chicago Center
07:47PM 42.5958 -88.8228 133° Southeast 332 382 12,100 -1,080 Descending Chicago Center
07:48PM 42.5347 -88.7342 133° Southeast 326 375 10,800 -1,200 Descending Chicago Center
07:49PM 42.4783 -88.6522 133° Southeast 295 339 9,700 -900 Descending Chicago Center
07:50PM 42.4272 -88.5761 132° Southeast 276 318 9,000 -300 Descending Chicago Center
07:51PM 42.3681 -88.4861 132° Southeast 274 315 9,100  Climbing Chicago Center
07:52PM 42.3114 -88.4397 149° Southeast 276 318 9,000 -60 Descending Chicago Center
07:53PM 42.2350 -88.4406 180° South 276 318 9,000  Level Chicago Center
07:54PM 42.1744 -88.4381 178° South 220 253 9,000 -420 Level Chicago Center
07:55PM 42.1186 -88.4381 180° South 203 234 8,200 -960 Descending Chicago Center
07:56PM 42.0631 -88.4056 157° South 199 229 7,100 -600 Descending Chicago Center
07:57PM 42.0247 -88.3558 136° Southeast 190 219 7,000 -180 Descending Chicago Center
07:58PM 41.9858 -88.3136 141° Southeast 182 209 6,800 -720 Descending Chicago Center
07:59PM 41.9656 -88.2617 118° Southeast 159 183 5,600 -1,140 Descending Chicago Center
08:00PM 41.9681 -88.1903 87° East 163 188 4,500 -1,020 Descending Chicago Center
08:01PM 41.9672 -88.1325 91° East 157 181 3,600 -900 Descending Chicago Center
08:02PM 41.9667 -88.0833 91° East 154 177 2,900 -840 Descending Chicago TRACON
08:03PM 41.9667 -88.0333 90° East 151 174 2,100 -780 Descending Chicago TRACON
08:04PM 41.9667 -87.9833 90° East 122 140 1,400 -660 Descending Chicago TRACON
08:05PM 41.9667 -87.9333 90° East 120 138 900 -600 Descending Chicago TRACON